sensor_id;sensor_type;location;lat;lon;timestamp;temperature;humidity
56512;DHT22;42408;53.238;5.686;2022-12-18T00:02:13;-1.60;99.90
56512;DHT22;42408;53.238;5.686;2022-12-18T00:04:39;-1.60;99.90
56512;DHT22;42408;53.238;5.686;2022-12-18T00:07:04;-1.60;99.90
56512;DHT22;42408;53.238;5.686;2022-12-18T00:09:30;-1.50;99.90
56512;DHT22;42408;53.238;5.686;2022-12-18T00:11:56;-1.50;99.90
56512;DHT22;42408;53.238;5.686;2022-12-18T00:14:21;-1.40;99.90
56512;DHT22;42408;53.238;5.686;2022-12-18T00:16:47;-1.50;99.90
56512;DHT22;42408;53.238;5.686;2022-12-18T00:19:13;-1.60;99.90
56512;DHT22;42408;53.238;5.686;2022-12-18T00:21:41;-1.60;99.90
56512;DHT22;42408;53.238;5.686;2022-12-18T00:24:07;-1.50;99.90
56512;DHT22;42408;53.238;5.686;2022-12-18T00:26:34;-1.50;99.90
56512;DHT22;42408;53.238;5.686;2022-12-18T00:29:06;-1.60;99.90
56512;DHT22;42408;53.238;5.686;2022-12-18T00:31:32;-1.70;99.90
56512;DHT22;42408;53.238;5.686;2022-12-18T00:33:58;-1.70;99.90
56512;DHT22;42408;53.238;5.686;2022-12-18T00:36:27;-1.60;99.90
56512;DHT22;42408;53.238;5.686;2022-12-18T00:38:54;-1.60;99.90
56512;DHT22;42408;53.238;5.686;2022-12-18T00:41:20;-1.60;99.90
56512;DHT22;42408;53.238;5.686;2022-12-18T00:44:06;-1.60;99.90
56512;DHT22;42408;53.238;5.686;2022-12-18T00:46:33;-1.60;99.90
56512;DHT22;42408;53.238;5.686;2022-12-18T00:48:59;-1.60;99.90
56512;DHT22;42408;53.238;5.686;2022-12-18T00:51:24;-1.60;99.90
56512;DHT22;42408;53.238;5.686;2022-12-18T00:53:50;-1.50;99.90
56512;DHT22;42408;53.238;5.686;2022-12-18T00:56:16;-1.60;99.90
56512;DHT22;42408;53.238;5.686;2022-12-18T00:58:41;-1.60;99.90
56512;DHT22;42408;53.238;5.686;2022-12-18T01:01:07;-1.50;99.90
56512;DHT22;42408;53.238;5.686;2022-12-18T01:03:33;-1.60;99.90
56512;DHT22;42408;53.238;5.686;2022-12-18T01:05:59;-1.60;99.90
56512;DHT22;42408;53.238;5.686;2022-12-18T01:08:25;-1.60;99.90
56512;DHT22;42408;53.238;5.686;2022-12-18T01:10:50;-1.60;99.90
56512;DHT22;42408;53.238;5.686;2022-12-18T01:13:16;-1.60;99.90
56512;DHT22;42408;53.238;5.686;2022-12-18T01:15:50;-1.60;99.90
56512;DHT22;42408;53.238;5.686;2022-12-18T01:18:16;-1.50;99.90
56512;DHT22;42408;53.238;5.686;2022-12-18T01:20:42;-1.60;99.90
56512;DHT22;42408;53.238;5.686;2022-12-18T01:23:08;-1.60;99.90
56512;DHT22;42408;53.238;5.686;2022-12-18T01:25:35;-1.60;99.90
56512;DHT22;42408;53.238;5.686;2022-12-18T01:28:01;-1.70;99.90
56512;DHT22;42408;53.238;5.686;2022-12-18T01:30:27;-1.70;99.90
56512;DHT22;42408;53.238;5.686;2022-12-18T01:32:53;-1.60;99.90
56512;DHT22;42408;53.238;5.686;2022-12-18T01:35:19;-1.70;99.90
56512;DHT22;42408;53.238;5.686;2022-12-18T01:37:44;-1.60;99.90
56512;DHT22;42408;53.238;5.686;2022-12-18T01:40:10;-1.70;99.90
56512;DHT22;42408;53.238;5.686;2022-12-18T01:42:36;-1.80;99.90
56512;DHT22;42408;53.238;5.686;2022-12-18T01:47:38;-1.80;99.90
56512;DHT22;42408;53.238;5.686;2022-12-18T01:50:11;-1.70;99.90
56512;DHT22;42408;53.238;5.686;2022-12-18T01:52:38;-1.70;99.90
56512;DHT22;42408;53.238;5.686;2022-12-18T01:55:06;-1.70;99.90
56512;DHT22;42408;53.238;5.686;2022-12-18T01:57:32;-1.80;99.90
56512;DHT22;42408;53.238;5.686;2022-12-18T02:00:08;-1.80;99.90
56512;DHT22;42408;53.238;5.686;2022-12-18T02:02:34;-1.80;99.90
56512;DHT22;42408;53.238;5.686;2022-12-18T02:05:00;-1.90;99.90
56512;DHT22;42408;53.238;5.686;2022-12-18T02:10:07;-1.90;99.90
56512;DHT22;42408;53.238;5.686;2022-12-18T02:18:30;-1.90;99.90
56512;DHT22;42408;53.238;5.686;2022-12-18T02:26:34;-2.10;99.90
56512;DHT22;42408;53.238;5.686;2022-12-18T02:29:32;-2.10;99.90
56512;DHT22;42408;53.238;5.686;2022-12-18T02:31:57;-2.10;99.90
56512;DHT22;42408;53.238;5.686;2022-12-18T02:34:28;-2.10;99.90
56512;DHT22;42408;53.238;5.686;2022-12-18T02:36:55;-2.10;99.90
56512;DHT22;42408;53.238;5.686;2022-12-18T02:39:23;-2.10;99.90
56512;DHT22;42408;53.238;5.686;2022-12-18T02:41:50;-2.00;99.90
56512;DHT22;42408;53.238;5.686;2022-12-18T02:44:16;-2.10;99.90
56512;DHT22;42408;53.238;5.686;2022-12-18T02:46:53;-2.10;99.90
56512;DHT22;42408;53.238;5.686;2022-12-18T02:49:34;-2.10;99.90
56512;DHT22;42408;53.238;5.686;2022-12-18T02:52:23;-2.20;99.90
56512;DHT22;42408;53.238;5.686;2022-12-18T02:58:01;-2.20;99.90
56512;DHT22;42408;53.238;5.686;2022-12-18T03:03:38;-2.30;99.90
56512;DHT22;42408;53.238;5.686;2022-12-18T03:06:12;-2.30;99.90
56512;DHT22;42408;53.238;5.686;2022-12-18T03:08:44;-2.40;99.90
56512;DHT22;42408;53.238;5.686;2022-12-18T03:11:13;-2.40;99.90
56512;DHT22;42408;53.238;5.686;2022-12-18T03:13:41;-2.50;99.90
56512;DHT22;42408;53.238;5.686;2022-12-18T03:16:12;-2.50;99.90
56512;DHT22;42408;53.238;5.686;2022-12-18T03:18:47;-2.50;99.90
56512;DHT22;42408;53.238;5.686;2022-12-18T03:21:17;-2.50;99.90
56512;DHT22;42408;53.238;5.686;2022-12-18T03:23:48;-2.50;99.90
56512;DHT22;42408;53.238;5.686;2022-12-18T03:26:17;-2.60;99.90
56512;DHT22;42408;53.238;5.686;2022-12-18T03:28:49;-2.70;99.90
56512;DHT22;42408;53.238;5.686;2022-12-18T03:31:16;-2.70;99.90
56512;DHT22;42408;53.238;5.686;2022-12-18T03:33:58;-2.70;99.90
56512;DHT22;42408;53.238;5.686;2022-12-18T03:36:25;-2.70;99.90
56512;DHT22;42408;53.238;5.686;2022-12-18T03:38:51;-2.70;99.90
56512;DHT22;42408;53.238;5.686;2022-12-18T03:41:32;-2.80;99.90
56512;DHT22;42408;53.238;5.686;2022-12-18T03:52:10;-2.80;99.90
56512;DHT22;42408;53.238;5.686;2022-12-18T03:54:37;-2.80;99.90
56512;DHT22;42408;53.238;5.686;2022-12-18T03:57:11;-2.80;99.90
56512;DHT22;42408;53.238;5.686;2022-12-18T03:59:39;-2.80;99.90
56512;DHT22;42408;53.238;5.686;2022-12-18T04:02:06;-2.90;99.90
56512;DHT22;42408;53.238;5.686;2022-12-18T04:04:34;-2.90;99.90
56512;DHT22;42408;53.238;5.686;2022-12-18T04:07:00;-2.90;99.90
56512;DHT22;42408;53.238;5.686;2022-12-18T04:09:27;-2.90;99.90
56512;DHT22;42408;53.238;5.686;2022-12-18T04:11:53;-3.00;99.90
56512;DHT22;42408;53.238;5.686;2022-12-18T04:14:20;-3.10;99.90
56512;DHT22;42408;53.238;5.686;2022-12-18T04:16:45;-3.10;99.90
56512;DHT22;42408;53.238;5.686;2022-12-18T04:19:11;-3.10;99.90
56512;DHT22;42408;53.238;5.686;2022-12-18T04:21:37;-3.20;99.90
56512;DHT22;42408;53.238;5.686;2022-12-18T04:24:02;-3.20;99.90
56512;DHT22;42408;53.238;5.686;2022-12-18T04:26:28;-3.20;99.90
56512;DHT22;42408;53.238;5.686;2022-12-18T04:28:54;-3.20;99.90
56512;DHT22;42408;53.238;5.686;2022-12-18T04:31:19;-3.30;99.90
56512;DHT22;42408;53.238;5.686;2022-12-18T04:33:45;-3.30;99.90
56512;DHT22;42408;53.238;5.686;2022-12-18T04:36:10;-3.30;99.90
56512;DHT22;42408;53.238;5.686;2022-12-18T04:38:37;-3.30;99.90
56512;DHT22;42408;53.238;5.686;2022-12-18T04:41:03;-3.40;99.90
56512;DHT22;42408;53.238;5.686;2022-12-18T04:43:29;-3.40;99.90
56512;DHT22;42408;53.238;5.686;2022-12-18T04:46:04;-3.40;99.90
56512;DHT22;42408;53.238;5.686;2022-12-18T04:48:30;-3.40;99.90
56512;DHT22;42408;53.238;5.686;2022-12-18T04:50:56;-3.40;99.90
56512;DHT22;42408;53.238;5.686;2022-12-18T04:53:21;-3.40;99.90
56512;DHT22;42408;53.238;5.686;2022-12-18T04:55:47;-3.40;99.90
56512;DHT22;42408;53.238;5.686;2022-12-18T04:58:13;-3.50;99.90
56512;DHT22;42408;53.238;5.686;2022-12-18T05:00:38;-3.50;99.90
56512;DHT22;42408;53.238;5.686;2022-12-18T05:03:04;-3.50;99.90
56512;DHT22;42408;53.238;5.686;2022-12-18T05:05:30;-3.50;99.90
56512;DHT22;42408;53.238;5.686;2022-12-18T05:07:56;-3.60;99.90
56512;DHT22;42408;53.238;5.686;2022-12-18T05:10:21;-3.60;99.90
56512;DHT22;42408;53.238;5.686;2022-12-18T05:12:47;-3.60;99.90
56512;DHT22;42408;53.238;5.686;2022-12-18T05:15:32;-3.60;99.90
56512;DHT22;42408;53.238;5.686;2022-12-18T05:17:58;-3.60;99.90
56512;DHT22;42408;53.238;5.686;2022-12-18T05:20:25;-3.60;99.90
56512;DHT22;42408;53.238;5.686;2022-12-18T05:22:51;-3.70;99.90
56512;DHT22;42408;53.238;5.686;2022-12-18T05:25:17;-3.60;99.90
56512;DHT22;42408;53.238;5.686;2022-12-18T05:27:43;-3.60;99.90
56512;DHT22;42408;53.238;5.686;2022-12-18T05:30:09;-3.60;99.90
56512;DHT22;42408;53.238;5.686;2022-12-18T05:32:35;-3.60;99.90
56512;DHT22;42408;53.238;5.686;2022-12-18T05:35:01;-3.50;99.90
56512;DHT22;42408;53.238;5.686;2022-12-18T05:37:26;-3.50;99.90
56512;DHT22;42408;53.238;5.686;2022-12-18T05:39:52;-3.60;99.90
56512;DHT22;42408;53.238;5.686;2022-12-18T05:42:18;-3.60;99.90
56512;DHT22;42408;53.238;5.686;2022-12-18T05:44:43;-3.60;99.90
56512;DHT22;42408;53.238;5.686;2022-12-18T05:47:09;-3.70;99.90
56512;DHT22;42408;53.238;5.686;2022-12-18T05:49:35;-3.60;99.90
56512;DHT22;42408;53.238;5.686;2022-12-18T05:52:01;-3.60;99.90
56512;DHT22;42408;53.238;5.686;2022-12-18T05:54:29;-3.70;99.90
56512;DHT22;42408;53.238;5.686;2022-12-18T05:56:57;-3.70;99.90
56512;DHT22;42408;53.238;5.686;2022-12-18T05:59:22;-3.70;99.90
56512;DHT22;42408;53.238;5.686;2022-12-18T06:01:48;-3.70;99.90
56512;DHT22;42408;53.238;5.686;2022-12-18T06:04:14;-3.70;99.90
56512;DHT22;42408;53.238;5.686;2022-12-18T06:06:40;-3.80;99.90
56512;DHT22;42408;53.238;5.686;2022-12-18T06:09:05;-3.80;99.90
56512;DHT22;42408;53.238;5.686;2022-12-18T06:11:35;-3.80;99.90
56512;DHT22;42408;53.238;5.686;2022-12-18T06:14:01;-3.80;99.90
56512;DHT22;42408;53.238;5.686;2022-12-18T06:16:28;-3.80;99.90
56512;DHT22;42408;53.238;5.686;2022-12-18T06:18:57;-3.90;99.90
56512;DHT22;42408;53.238;5.686;2022-12-18T06:21:22;-3.80;99.90
56512;DHT22;42408;53.238;5.686;2022-12-18T06:23:48;-3.90;99.90
56512;DHT22;42408;53.238;5.686;2022-12-18T06:26:14;-3.90;99.90
56512;DHT22;42408;53.238;5.686;2022-12-18T06:28:40;-3.90;99.90
56512;DHT22;42408;53.238;5.686;2022-12-18T06:31:06;-3.90;99.90
56512;DHT22;42408;53.238;5.686;2022-12-18T06:33:31;-4.00;99.90
56512;DHT22;42408;53.238;5.686;2022-12-18T06:36:02;-4.00;99.90
56512;DHT22;42408;53.238;5.686;2022-12-18T06:38:28;-3.90;99.90
56512;DHT22;42408;53.238;5.686;2022-12-18T06:40:54;-3.90;99.90
56512;DHT22;42408;53.238;5.686;2022-12-18T06:43:20;-4.00;99.90
56512;DHT22;42408;53.238;5.686;2022-12-18T06:45:45;-4.00;99.90
56512;DHT22;42408;53.238;5.686;2022-12-18T06:48:14;-4.00;99.90
56512;DHT22;42408;53.238;5.686;2022-12-18T06:50:42;-4.10;99.90
56512;DHT22;42408;53.238;5.686;2022-12-18T06:53:08;-4.00;99.90
56512;DHT22;42408;53.238;5.686;2022-12-18T06:55:33;-4.10;99.90
56512;DHT22;42408;53.238;5.686;2022-12-18T06:57:59;-4.10;99.90
56512;DHT22;42408;53.238;5.686;2022-12-18T07:00:24;-4.10;99.90
56512;DHT22;42408;53.238;5.686;2022-12-18T07:02:50;-4.20;99.90
56512;DHT22;42408;53.238;5.686;2022-12-18T07:05:16;-4.10;99.90
56512;DHT22;42408;53.238;5.686;2022-12-18T07:07:41;-4.10;99.90
56512;DHT22;42408;53.238;5.686;2022-12-18T07:10:07;-4.20;99.90
56512;DHT22;42408;53.238;5.686;2022-12-18T07:12:33;-4.10;99.90
56512;DHT22;42408;53.238;5.686;2022-12-18T07:14:59;-4.10;99.90
56512;DHT22;42408;53.238;5.686;2022-12-18T07:17:24;-4.10;99.90
56512;DHT22;42408;53.238;5.686;2022-12-18T07:19:50;-4.10;99.90
56512;DHT22;42408;53.238;5.686;2022-12-18T07:22:15;-4.10;99.90
56512;DHT22;42408;53.238;5.686;2022-12-18T07:24:41;-4.10;99.90
56512;DHT22;42408;53.238;5.686;2022-12-18T07:27:07;-4.10;99.90
56512;DHT22;42408;53.238;5.686;2022-12-18T07:29:32;-4.10;99.90
56512;DHT22;42408;53.238;5.686;2022-12-18T07:31:58;-4.10;99.90
56512;DHT22;42408;53.238;5.686;2022-12-18T07:34:24;-4.10;99.90
56512;DHT22;42408;53.238;5.686;2022-12-18T07:36:49;-4.00;99.90
56512;DHT22;42408;53.238;5.686;2022-12-18T07:39:15;-4.00;99.90
56512;DHT22;42408;53.238;5.686;2022-12-18T07:41:41;-4.00;99.90
56512;DHT22;42408;53.238;5.686;2022-12-18T07:44:12;-4.10;99.90
56512;DHT22;42408;53.238;5.686;2022-12-18T07:46:38;-4.00;99.90
56512;DHT22;42408;53.238;5.686;2022-12-18T07:49:04;-4.00;99.90
56512;DHT22;42408;53.238;5.686;2022-12-18T07:51:29;-4.00;99.90
56512;DHT22;42408;53.238;5.686;2022-12-18T07:53:56;-4.00;99.90
56512;DHT22;42408;53.238;5.686;2022-12-18T07:56:22;-4.00;99.90
56512;DHT22;42408;53.238;5.686;2022-12-18T07:58:47;-4.00;99.90
56512;DHT22;42408;53.238;5.686;2022-12-18T08:01:13;-4.00;99.90
56512;DHT22;42408;53.238;5.686;2022-12-18T08:03:40;-4.10;99.90
56512;DHT22;42408;53.238;5.686;2022-12-18T08:06:07;-4.10;99.90
56512;DHT22;42408;53.238;5.686;2022-12-18T08:08:33;-4.00;99.90
56512;DHT22;42408;53.238;5.686;2022-12-18T08:10:59;-4.10;99.90
56512;DHT22;42408;53.238;5.686;2022-12-18T08:13:25;-4.10;99.90
56512;DHT22;42408;53.238;5.686;2022-12-18T08:16:02;-4.00;99.90
56512;DHT22;42408;53.238;5.686;2022-12-18T08:18:29;-4.00;99.90
56512;DHT22;42408;53.238;5.686;2022-12-18T08:20:55;-4.00;99.90
56512;DHT22;42408;53.238;5.686;2022-12-18T08:23:21;-4.00;99.90
56512;DHT22;42408;53.238;5.686;2022-12-18T08:25:47;-3.90;99.90
56512;DHT22;42408;53.238;5.686;2022-12-18T08:28:13;-3.90;99.90
56512;DHT22;42408;53.238;5.686;2022-12-18T08:30:41;-3.80;99.90
56512;DHT22;42408;53.238;5.686;2022-12-18T08:33:07;-3.70;99.90
56512;DHT22;42408;53.238;5.686;2022-12-18T08:35:36;-3.70;99.90
56512;DHT22;42408;53.238;5.686;2022-12-18T08:38:02;-3.70;99.90
56512;DHT22;42408;53.238;5.686;2022-12-18T08:40:28;-3.70;99.90
56512;DHT22;42408;53.238;5.686;2022-12-18T08:42:54;-3.60;99.90
56512;DHT22;42408;53.238;5.686;2022-12-18T08:45:38;-3.60;99.90
56512;DHT22;42408;53.238;5.686;2022-12-18T08:48:04;-3.50;99.90
56512;DHT22;42408;53.238;5.686;2022-12-18T08:50:29;-3.40;99.90
56512;DHT22;42408;53.238;5.686;2022-12-18T08:52:55;-3.40;99.90
56512;DHT22;42408;53.238;5.686;2022-12-18T08:55:21;-3.40;99.90
56512;DHT22;42408;53.238;5.686;2022-12-18T08:57:50;-3.30;99.90
56512;DHT22;42408;53.238;5.686;2022-12-18T09:00:16;-3.20;99.90
56512;DHT22;42408;53.238;5.686;2022-12-18T09:02:41;-3.20;99.90
56512;DHT22;42408;53.238;5.686;2022-12-18T09:05:07;-3.10;99.90
56512;DHT22;42408;53.238;5.686;2022-12-18T09:07:33;-3.10;99.90
56512;DHT22;42408;53.238;5.686;2022-12-18T09:09:58;-3.00;99.90
56512;DHT22;42408;53.238;5.686;2022-12-18T09:12:24;-3.00;99.90
56512;DHT22;42408;53.238;5.686;2022-12-18T09:14:50;-2.90;99.90
56512;DHT22;42408;53.238;5.686;2022-12-18T09:17:15;-2.80;99.90
56512;DHT22;42408;53.238;5.686;2022-12-18T09:19:41;-2.80;99.90
56512;DHT22;42408;53.238;5.686;2022-12-18T09:22:07;-2.70;99.90
56512;DHT22;42408;53.238;5.686;2022-12-18T09:24:32;-2.60;99.90
56512;DHT22;42408;53.238;5.686;2022-12-18T09:26:58;-2.50;99.90
56512;DHT22;42408;53.238;5.686;2022-12-18T09:29:24;-2.40;99.90
56512;DHT22;42408;53.238;5.686;2022-12-18T09:31:50;-2.40;99.90
56512;DHT22;42408;53.238;5.686;2022-12-18T09:34:15;-2.30;99.90
56512;DHT22;42408;53.238;5.686;2022-12-18T09:36:42;-2.30;99.90
56512;DHT22;42408;53.238;5.686;2022-12-18T09:39:07;-2.20;99.90
56512;DHT22;42408;53.238;5.686;2022-12-18T09:41:47;-2.10;99.90
56512;DHT22;42408;53.238;5.686;2022-12-18T09:44:29;-2.10;99.90
56512;DHT22;42408;53.238;5.686;2022-12-18T09:49:39;-1.90;99.90
56512;DHT22;42408;53.238;5.686;2022-12-18T09:52:16;-1.90;99.90
56512;DHT22;42408;53.238;5.686;2022-12-18T09:54:49;-1.80;99.90
56512;DHT22;42408;53.238;5.686;2022-12-18T09:57:20;-1.70;99.90
56512;DHT22;42408;53.238;5.686;2022-12-18T09:59:52;-1.60;99.90
56512;DHT22;42408;53.238;5.686;2022-12-18T10:02:23;-1.50;99.90
56512;DHT22;42408;53.238;5.686;2022-12-18T10:05:17;-1.40;99.90
56512;DHT22;42408;53.238;5.686;2022-12-18T10:07:52;-1.40;99.90
56512;DHT22;42408;53.238;5.686;2022-12-18T10:13:09;-1.20;99.90
56512;DHT22;42408;53.238;5.686;2022-12-18T10:20:48;-0.90;99.90
56512;DHT22;42408;53.238;5.686;2022-12-18T10:23:33;-0.80;99.90
56512;DHT22;42408;53.238;5.686;2022-12-18T10:26:06;-0.70;99.90
56512;DHT22;42408;53.238;5.686;2022-12-18T10:28:35;-0.60;99.90
56512;DHT22;42408;53.238;5.686;2022-12-18T10:31:01;-0.50;99.90
56512;DHT22;42408;53.238;5.686;2022-12-18T10:33:30;-0.40;99.90
56512;DHT22;42408;53.238;5.686;2022-12-18T10:35:57;-0.40;99.90
56512;DHT22;42408;53.238;5.686;2022-12-18T10:38:31;-0.30;99.90
56512;DHT22;42408;53.238;5.686;2022-12-18T10:41:04;-0.20;99.90
56512;DHT22;42408;53.238;5.686;2022-12-18T10:46:16;-0.10;99.90
56512;DHT22;42408;53.238;5.686;2022-12-18T10:48:53;0.00;99.90
56512;DHT22;42408;53.238;5.686;2022-12-18T10:53:57;0.10;99.90
56512;DHT22;42408;53.238;5.686;2022-12-18T10:56:24;0.20;99.90
56512;DHT22;42408;53.238;5.686;2022-12-18T10:59:08;0.30;99.90
56512;DHT22;42408;53.238;5.686;2022-12-18T11:01:53;0.40;99.90
56512;DHT22;42408;53.238;5.686;2022-12-18T11:04:23;0.40;99.90
56512;DHT22;42408;53.238;5.686;2022-12-18T11:07:07;0.50;99.90
56512;DHT22;42408;53.238;5.686;2022-12-18T11:09:35;0.50;99.90
56512;DHT22;42408;53.238;5.686;2022-12-18T11:14:45;0.70;99.90
56512;DHT22;42408;53.238;5.686;2022-12-18T11:19:58;0.80;99.90
56512;DHT22;42408;53.238;5.686;2022-12-18T11:22:27;0.90;99.90
56512;DHT22;42408;53.238;5.686;2022-12-18T11:27:40;1.10;99.90
56512;DHT22;42408;53.238;5.686;2022-12-18T11:33:13;1.20;99.90
56512;DHT22;42408;53.238;5.686;2022-12-18T11:35:55;1.20;99.90
56512;DHT22;42408;53.238;5.686;2022-12-18T11:38:39;1.30;99.90
56512;DHT22;42408;53.238;5.686;2022-12-18T11:41:29;1.20;99.90
56512;DHT22;42408;53.238;5.686;2022-12-18T11:44:26;1.20;99.90
56512;DHT22;42408;53.238;5.686;2022-12-18T11:49:41;1.40;99.90
56512;DHT22;42408;53.238;5.686;2022-12-18T11:52:26;1.40;99.90
56512;DHT22;42408;53.238;5.686;2022-12-18T11:54:58;1.50;99.90
56512;DHT22;42408;53.238;5.686;2022-12-18T12:06:14;1.60;99.90
56512;DHT22;42408;53.238;5.686;2022-12-18T12:09:05;1.60;99.90
56512;DHT22;42408;53.238;5.686;2022-12-18T12:11:49;1.60;99.90
56512;DHT22;42408;53.238;5.686;2022-12-18T12:30:18;2.20;99.90
56512;DHT22;42408;53.238;5.686;2022-12-18T12:32:55;2.20;99.90
56512;DHT22;42408;53.238;5.686;2022-12-18T12:40:41;2.40;99.90
56512;DHT22;42408;53.238;5.686;2022-12-18T12:43:22;2.40;99.90
56512;DHT22;42408;53.238;5.686;2022-12-18T12:45:56;2.30;99.90
56512;DHT22;42408;53.238;5.686;2022-12-18T12:48:35;2.40;99.90
56512;DHT22;42408;53.238;5.686;2022-12-18T12:51:03;2.40;99.90
56512;DHT22;42408;53.238;5.686;2022-12-18T12:53:35;2.40;99.90
56512;DHT22;42408;53.238;5.686;2022-12-18T12:56:03;2.40;99.90
56512;DHT22;42408;53.238;5.686;2022-12-18T12:58:36;2.50;99.90
56512;DHT22;42408;53.238;5.686;2022-12-18T13:06:52;2.40;99.90
56512;DHT22;42408;53.238;5.686;2022-12-18T13:09:20;2.40;99.90
56512;DHT22;42408;53.238;5.686;2022-12-18T13:11:46;2.40;99.90
56512;DHT22;42408;53.238;5.686;2022-12-18T13:14:37;2.50;99.90
56512;DHT22;42408;53.238;5.686;2022-12-18T13:19:44;2.50;99.90
56512;DHT22;42408;53.238;5.686;2022-12-18T13:22:25;2.60;99.90
56512;DHT22;42408;53.238;5.686;2022-12-18T13:24:54;2.70;99.90
56512;DHT22;42408;53.238;5.686;2022-12-18T13:27:56;2.70;99.90
56512;DHT22;42408;53.238;5.686;2022-12-18T13:41:02;2.60;99.90
56512;DHT22;42408;53.238;5.686;2022-12-18T13:43:31;2.70;99.90
56512;DHT22;42408;53.238;5.686;2022-12-18T13:46:16;2.60;99.90
56512;DHT22;42408;53.238;5.686;2022-12-18T13:51:35;2.70;99.90
56512;DHT22;42408;53.238;5.686;2022-12-18T13:56:47;2.70;99.90
56512;DHT22;42408;53.238;5.686;2022-12-18T13:59:25;2.80;99.90
56512;DHT22;42408;53.238;5.686;2022-12-18T14:06:54;2.80;99.90
56512;DHT22;42408;53.238;5.686;2022-12-18T14:09:25;2.80;99.90
56512;DHT22;42408;53.238;5.686;2022-12-18T14:11:52;2.70;99.90
56512;DHT22;42408;53.238;5.686;2022-12-18T14:14:41;2.80;99.90
56512;DHT22;42408;53.238;5.686;2022-12-18T14:17:10;2.70;99.90
56512;DHT22;42408;53.238;5.686;2022-12-18T14:19:36;2.80;99.90
56512;DHT22;42408;53.238;5.686;2022-12-18T14:22:03;2.80;99.90
56512;DHT22;42408;53.238;5.686;2022-12-18T14:24:28;2.70;99.90
56512;DHT22;42408;53.238;5.686;2022-12-18T14:26:56;2.70;99.90
56512;DHT22;42408;53.238;5.686;2022-12-18T14:29:43;2.70;99.90
56512;DHT22;42408;53.238;5.686;2022-12-18T14:34:39;2.80;99.90
56512;DHT22;42408;53.238;5.686;2022-12-18T14:37:05;2.80;99.90
56512;DHT22;42408;53.238;5.686;2022-12-18T14:39:32;2.70;99.90
56512;DHT22;42408;53.238;5.686;2022-12-18T14:41:58;2.80;99.90
56512;DHT22;42408;53.238;5.686;2022-12-18T14:44:23;2.60;99.90
56512;DHT22;42408;53.238;5.686;2022-12-18T14:46:50;2.60;99.90
56512;DHT22;42408;53.238;5.686;2022-12-18T14:49:32;2.60;99.90
56512;DHT22;42408;53.238;5.686;2022-12-18T14:52:06;2.60;99.90
56512;DHT22;42408;53.238;5.686;2022-12-18T14:54:34;2.50;99.90
56512;DHT22;42408;53.238;5.686;2022-12-18T14:59:30;2.40;99.90
56512;DHT22;42408;53.238;5.686;2022-12-18T15:02:20;2.40;99.90
56512;DHT22;42408;53.238;5.686;2022-12-18T15:04:47;2.50;99.90
56512;DHT22;42408;53.238;5.686;2022-12-18T15:07:21;2.40;99.90
56512;DHT22;42408;53.238;5.686;2022-12-18T15:12:34;2.30;99.90
56512;DHT22;42408;53.238;5.686;2022-12-18T15:14:59;2.20;99.90
56512;DHT22;42408;53.238;5.686;2022-12-18T15:17:25;2.20;99.90
56512;DHT22;42408;53.238;5.686;2022-12-18T15:19:58;2.20;99.90
56512;DHT22;42408;53.238;5.686;2022-12-18T15:22:34;2.20;99.90
56512;DHT22;42408;53.238;5.686;2022-12-18T15:25:01;2.10;99.90
56512;DHT22;42408;53.238;5.686;2022-12-18T15:27:35;2.10;99.90
56512;DHT22;42408;53.238;5.686;2022-12-18T15:32:36;2.10;99.90
56512;DHT22;42408;53.238;5.686;2022-12-18T15:35:23;2.10;99.90
56512;DHT22;42408;53.238;5.686;2022-12-18T15:37:52;2.10;99.90
56512;DHT22;42408;53.238;5.686;2022-12-18T15:40:20;2.00;99.90
56512;DHT22;42408;53.238;5.686;2022-12-18T15:42:47;2.10;99.90
56512;DHT22;42408;53.238;5.686;2022-12-18T15:45:32;2.10;99.90
56512;DHT22;42408;53.238;5.686;2022-12-18T15:47:58;2.00;99.90
56512;DHT22;42408;53.238;5.686;2022-12-18T15:50:24;1.80;99.90
56512;DHT22;42408;53.238;5.686;2022-12-18T15:52:52;1.80;99.90
56512;DHT22;42408;53.238;5.686;2022-12-18T15:55:23;1.80;99.90
56512;DHT22;42408;53.238;5.686;2022-12-18T15:58:09;1.80;99.90
56512;DHT22;42408;53.238;5.686;2022-12-18T16:00:38;1.80;99.90
56512;DHT22;42408;53.238;5.686;2022-12-18T16:03:04;1.80;99.90
56512;DHT22;42408;53.238;5.686;2022-12-18T16:05:31;1.80;99.90
56512;DHT22;42408;53.238;5.686;2022-12-18T16:07:57;1.80;99.90
56512;DHT22;42408;53.238;5.686;2022-12-18T16:10:24;1.90;99.90
56512;DHT22;42408;53.238;5.686;2022-12-18T16:12:50;1.90;99.90
56512;DHT22;42408;53.238;5.686;2022-12-18T16:15:16;1.80;99.90
56512;DHT22;42408;53.238;5.686;2022-12-18T16:17:46;1.90;99.90
56512;DHT22;42408;53.238;5.686;2022-12-18T16:20:17;1.90;99.90
56512;DHT22;42408;53.238;5.686;2022-12-18T16:22:44;1.90;99.90
56512;DHT22;42408;53.238;5.686;2022-12-18T16:27:42;2.00;99.90
56512;DHT22;42408;53.238;5.686;2022-12-18T16:30:13;1.90;99.90
56512;DHT22;42408;53.238;5.686;2022-12-18T16:32:38;1.90;99.90
56512;DHT22;42408;53.238;5.686;2022-12-18T16:35:04;2.00;99.90
56512;DHT22;42408;53.238;5.686;2022-12-18T16:37:30;2.00;99.90
56512;DHT22;42408;53.238;5.686;2022-12-18T16:39:56;1.90;99.90
56512;DHT22;42408;53.238;5.686;2022-12-18T16:42:21;1.90;99.90
56512;DHT22;42408;53.238;5.686;2022-12-18T16:44:49;1.80;99.90
56512;DHT22;42408;53.238;5.686;2022-12-18T16:47:15;1.90;99.90
56512;DHT22;42408;53.238;5.686;2022-12-18T16:49:42;1.90;99.90
56512;DHT22;42408;53.238;5.686;2022-12-18T16:52:10;1.90;99.90
56512;DHT22;42408;53.238;5.686;2022-12-18T16:54:36;1.80;99.90
56512;DHT22;42408;53.238;5.686;2022-12-18T16:57:02;1.80;99.90
56512;DHT22;42408;53.238;5.686;2022-12-18T16:59:29;1.80;99.90
56512;DHT22;42408;53.238;5.686;2022-12-18T17:01:55;1.80;99.90
56512;DHT22;42408;53.238;5.686;2022-12-18T17:04:21;1.90;99.90
56512;DHT22;42408;53.238;5.686;2022-12-18T17:06:47;1.90;99.90
56512;DHT22;42408;53.238;5.686;2022-12-18T17:09:19;1.90;99.90
56512;DHT22;42408;53.238;5.686;2022-12-18T17:11:53;2.00;99.90
56512;DHT22;42408;53.238;5.686;2022-12-18T17:14:22;1.90;99.90
56512;DHT22;42408;53.238;5.686;2022-12-18T17:16:48;2.00;99.90
56512;DHT22;42408;53.238;5.686;2022-12-18T17:19:14;1.90;99.90
56512;DHT22;42408;53.238;5.686;2022-12-18T17:21:42;1.90;99.90
56512;DHT22;42408;53.238;5.686;2022-12-18T17:24:07;2.00;99.90
56512;DHT22;42408;53.238;5.686;2022-12-18T17:26:33;1.90;99.90
56512;DHT22;42408;53.238;5.686;2022-12-18T17:28:59;1.90;99.90
56512;DHT22;42408;53.238;5.686;2022-12-18T17:31:27;1.90;99.90
56512;DHT22;42408;53.238;5.686;2022-12-18T17:33:53;1.90;99.90
56512;DHT22;42408;53.238;5.686;2022-12-18T17:36:19;1.80;99.90
56512;DHT22;42408;53.238;5.686;2022-12-18T17:38:56;1.80;99.90
56512;DHT22;42408;53.238;5.686;2022-12-18T17:41:23;1.80;99.90
56512;DHT22;42408;53.238;5.686;2022-12-18T17:43:53;1.80;99.90
56512;DHT22;42408;53.238;5.686;2022-12-18T17:46:20;1.80;99.90
56512;DHT22;42408;53.238;5.686;2022-12-18T17:48:46;1.90;99.90
56512;DHT22;42408;53.238;5.686;2022-12-18T17:51:13;1.90;99.90
56512;DHT22;42408;53.238;5.686;2022-12-18T17:53:39;1.80;99.90
56512;DHT22;42408;53.238;5.686;2022-12-18T17:56:05;1.90;99.90
56512;DHT22;42408;53.238;5.686;2022-12-18T17:58:32;1.90;99.90
56512;DHT22;42408;53.238;5.686;2022-12-18T18:00:58;1.90;99.90
56512;DHT22;42408;53.238;5.686;2022-12-18T18:03:24;1.90;99.90